Time;durP1;ratioP1;P1;durP2;ratioP2;P2;SDS_P1;SDS_P2;PMS_P1;PMS_P2;Temp;Humidity;BMP_temperature;BMP_pressure;BME280_temperature;BME280_humidity;BME280_pressure;Samples;Min_cycle;Max_cycle;Signal;HPM_P1;HPM_P2
2023/06/03 00:01:21;;;;;;;6.70;2.15;;;12.20;99.90;;;;;;5071393;28;20044;-73
2023/06/03 00:03:52;;;;;;;5.85;2.70;;;12.20;99.90;;;;;;5086298;28;20417;-74
2023/06/03 00:06:19;;;;;;;6.47;2.58;;;12.10;99.90;;;;;;5062229;28;20048;-73
2023/06/03 00:08:52;;;;;;;5.45;2.60;;;12.10;99.90;;;;;;5080124;28;20042;-73
2023/06/03 00:11:25;;;;;;;7.38;2.47;;;12.10;99.90;;;;;;5070875;28;20451;-75
2023/06/03 00:13:52;;;;;;;6.53;2.30;;;12.10;99.90;;;;;;5068991;28;20119;-74
2023/06/03 00:16:19;;;;;;;7.05;2.40;;;12.00;99.90;;;;;;5070513;28;20064;-74
2023/06/03 00:18:45;;;;;;;7.75;2.55;;;12.00;99.90;;;;;;5085689;28;20491;-74
2023/06/03 00:21:11;;;;;;;7.72;2.70;;;12.00;99.90;;;;;;5053419;28;20063;-75
2023/06/03 00:23:38;;;;;;;5.85;2.60;;;12.00;99.90;;;;;;5068837;28;20051;-74
2023/06/03 00:26:05;;;;;;;11.52;2.83;;;12.00;99.90;;;;;;5069397;28;20056;-73
2023/06/03 00:28:31;;;;;;;5.47;2.40;;;11.30;99.90;;;;;;5069890;28;20537;-74
2023/06/03 00:30:56;;;;;;;9.95;3.22;;;11.90;99.90;;;;;;5087020;28;20083;-73
2023/06/03 00:33:24;;;;;;;8.57;2.40;;;11.90;99.90;;;;;;5087265;28;20056;-75
2023/06/03 00:36:01;;;;;;;5.50;2.85;;;11.90;99.90;;;;;;5070449;28;20052;-74
2023/06/03 00:38:32;;;;;;;6.43;2.50;;;11.80;99.90;;;;;;5086351;28;20052;-74
2023/06/03 00:40:58;;;;;;;5.85;2.75;;;11.80;99.90;;;;;;5046033;28;20044;-74
2023/06/03 00:43:34;;;;;;;7.18;2.92;;;11.80;99.90;;;;;;5052355;28;20056;-74
2023/06/03 00:46:00;;;;;;;;;;;11.70;99.90;;;;;;5085503;28;20056;-74
2023/06/03 00:48:25;;;;;;;7.65;2.72;;;11.70;99.90;;;;;;5086174;28;19930;-74
2023/06/03 00:51:01;;;;;;;6.38;2.50;;;11.70;99.90;;;;;;5071051;28;20117;-74
2023/06/03 00:53:38;;;;;;;6.30;2.38;;;11.60;99.90;;;;;;5088191;28;20059;-74
2023/06/03 00:56:08;;;;;;;6.38;2.60;;;11.60;99.90;;;;;;5065943;28;20055;-72
2023/06/03 00:58:40;;;;;;;6.15;2.65;;;11.60;99.90;;;;;;5089588;28;20410;-73
2023/06/03 01:01:12;;;;;;;4.55;2.17;;;11.60;99.90;;;;;;5057714;28;20052;-73
2023/06/03 01:03:41;;;;;;;4.00;2.20;;;11.50;99.90;;;;;;5074516;28;20055;-73
2023/06/03 01:06:28;;;;;;;5.38;2.42;;;11.50;99.90;;;;;;5065549;28;20044;-73
2023/06/03 01:09:06;;;;;;;4.55;2.15;;;11.40;99.90;;;;;;5089590;28;20517;-74
2023/06/03 01:12:00;;;;;;;7.40;2.10;;;11.40;99.90;;;;;;5090291;28;20130;-73
2023/06/03 01:14:41;;;;;;;5.68;1.80;;;11.40;99.90;;;;;;5090421;28;20059;-73
2023/06/03 01:17:31;;;;;;;6.90;2.40;;;11.30;99.90;;;;;;5089290;28;20104;-75
2023/06/03 01:19:59;;;;;;;4.70;2.20;;;11.30;99.90;;;;;;5090017;28;20048;-74
2023/06/03 01:22:28;;;;;;;5.43;2.20;;;11.30;99.90;;;;;;5089234;28;20051;-74
2023/06/03 01:25:06;;;;;;;5.90;2.30;;;11.20;99.90;;;;;;5073679;28;20047;-75
2023/06/03 01:27:32;;;;;;;5.07;2.15;;;11.20;99.90;;;;;;5087445;28;20075;-75
2023/06/03 01:30:00;;;;;;;3.33;1.92;;;12.00;99.90;;;;;;5056259;28;20063;-74
2023/06/03 01:32:27;;;;;;;4.40;2.08;;;11.10;99.90;;;;;;5039828;28;20063;-74
2023/06/03 01:34:54;;;;;;;3.92;2.03;;;11.10;99.90;;;;;;5081452;28;20048;-75
2023/06/03 01:37:21;;;;;;;6.07;2.22;;;11.00;99.90;;;;;;5071275;28;20060;-75
2023/06/03 01:39:48;;;;;;;5.90;2.78;;;11.00;99.90;;;;;;5088941;28;20091;-74
2023/06/03 01:42:17;;;;;;;6.13;2.53;;;11.00;99.90;;;;;;5090136;28;21040;-74
2023/06/03 01:44:47;;;;;;;5.97;2.35;;;11.00;99.90;;;;;;5091058;28;20063;-75
2023/06/03 01:47:20;;;;;;;6.20;2.40;;;10.90;99.90;;;;;;5066850;28;20048;-75
2023/06/03 01:49:52;;;;;;;3.38;1.95;;;10.90;99.90;;;;;;5087214;28;20040;-74
2023/06/03 01:52:28;;;;;;;4.32;2.00;;;10.90;99.90;;;;;;5089997;28;20089;-75
2023/06/03 01:54:55;;;;;;;4.50;2.00;;;10.40;99.90;;;;;;5049104;28;20040;-75
2023/06/03 01:57:23;;;;;;;3.85;2.10;;;10.90;99.90;;;;;;5105310;28;20052;-75
2023/06/03 01:59:52;;;;;;;4.00;2.08;;;10.80;99.90;;;;;;5072704;28;20040;-74
2023/06/03 02:02:19;;;;;;;2.67;1.90;;;10.80;99.90;;;;;;5055943;28;20105;-74
2023/06/03 02:04:44;;;;;;;3.45;1.90;;;10.80;99.90;;;;;;5046166;28;20119;-74
2023/06/03 02:07:18;;;;;;;3.22;1.75;;;10.80;99.90;;;;;;5070150;28;20120;-74
2023/06/03 02:09:46;;;;;;;4.68;2.22;;;10.70;99.90;;;;;;5085744;28;20059;-74
2023/06/03 02:12:15;;;;;;;2.95;2.03;;;10.70;99.90;;;;;;5054067;28;20052;-74
2023/06/03 02:14:41;;;;;;;2.78;1.55;;;10.70;99.90;;;;;;5048622;28;20113;-75
2023/06/03 02:17:07;;;;;;;3.75;1.88;;;10.70;99.90;;;;;;5089336;28;20052;-75
2023/06/03 02:19:55;;;;;;;5.10;2.00;;;10.70;99.90;;;;;;5089325;28;20044;-75
2023/06/03 02:22:27;;;;;;;5.35;2.22;;;10.70;99.90;;;;;;5052342;28;20048;-75
2023/06/03 02:24:57;;;;;;;6.20;2.22;;;10.70;99.90;;;;;;5089428;28;20063;-74
2023/06/03 02:27:35;;;;;;;5.15;2.30;;;10.70;99.90;;;;;;5088668;28;20055;-74
2023/06/03 02:30:01;;;;;;;3.92;1.90;;;10.70;99.90;;;;;;5072287;28;20491;-75
2023/06/03 02:32:27;;;;;;;3.33;1.95;;;10.60;99.90;;;;;;5089045;28;20117;-75
2023/06/03 02:34:57;;;;;;;4.40;2.05;;;10.70;99.90;;;;;;5088475;28;20054;-75
2023/06/03 02:37:28;;;;;;;3.80;2.05;;;10.60;99.90;;;;;;5072820;28;20051;-76
2023/06/03 02:40:12;;;;;;;4.20;1.88;;;10.60;99.90;;;;;;5089835;28;20570;-75
2023/06/03 02:42:39;;;;;;;4.07;1.83;;;10.20;99.90;;;;;;5048713;28;20044;-74
2023/06/03 02:45:07;;;;;;;3.90;1.75;;;10.60;99.90;;;;;;5055419;28;20056;-74
2023/06/03 02:47:45;;;;;;;6.35;2.00;;;10.60;99.90;;;;;;5090467;28;20108;-74
2023/06/03 02:50:18;;;;;;;3.85;1.58;;;10.60;99.90;;;;;;5089533;28;20071;-75
2023/06/03 02:52:45;;;;;;;4.43;2.00;;;10.60;99.90;;;;;;5071137;28;20060;-74
2023/06/03 02:55:11;;;;;;;4.13;1.90;;;10.60;99.90;;;;;;5087487;28;20056;-74
2023/06/03 02:57:43;;;;;;;2.80;1.52;;;9.70;99.90;;;;;;5063930;28;20101;-74
2023/06/03 03:00:11;;;;;;;4.78;1.88;;;10.50;99.90;;;;;;5088489;28;20567;-74
2023/06/03 03:02:39;;;;;;;4.07;1.52;;;10.60;99.90;;;;;;5070734;28;20087;-75
2023/06/03 03:05:11;;;;;;;3.47;1.83;;;9.20;99.90;;;;;;5070293;28;20044;-73
2023/06/03 03:07:47;;;;;;;2.97;1.83;;;10.50;99.90;;;;;;5089826;28;20145;-76
2023/06/03 03:10:26;;;;;;;4.40;1.80;;;10.50;99.90;;;;;;5056780;28;20540;-74
2023/06/03 03:13:10;;;;;;;4.80;1.90;;;10.50;99.90;;;;;;5076125;28;20048;-74
2023/06/03 03:15:39;;;;;;;4.85;1.90;;;10.50;99.90;;;;;;5084886;28;20060;-74
2023/06/03 03:18:07;;;;;;;3.65;1.83;;;10.50;99.90;;;;;;5070424;28;20410;-75
2023/06/03 03:20:33;;;;;;;4.00;2.03;;;10.50;99.90;;;;;;5087650;28;20445;-74
2023/06/03 03:22:59;;;;;;;5.22;1.90;;;10.50;99.90;;;;;;5071231;28;20054;-75
2023/06/03 03:25:25;;;;;;;2.78;1.60;;;10.50;99.90;;;;;;5086016;28;20430;-75
2023/06/03 03:27:59;;;;;;;3.42;1.73;;;10.50;99.90;;;;;;5053359;28;20066;-75
2023/06/03 03:30:27;;;;;;;4.38;1.70;;;10.50;99.90;;;;;;5054760;28;20100;-75
2023/06/03 03:32:52;;;;;;;3.83;1.80;;;10.50;99.90;;;;;;5071097;28;20433;-75
2023/06/03 03:35:21;;;;;;;3.00;1.75;;;10.60;99.90;;;;;;5088053;28;20052;-75
2023/06/03 03:38:02;;;;;;;3.88;1.70;;;10.50;99.90;;;;;;5084947;28;20445;-75
2023/06/03 03:40:38;;;;;;;4.20;1.80;;;10.50;99.90;;;;;;5087474;28;20480;-74
2023/06/03 03:43:19;;;;;;;3.35;1.70;;;10.50;99.90;;;;;;5103804;28;20056;-75
2023/06/03 03:45:48;;;;;;;3.60;2.08;;;10.50;99.90;;;;;;5087069;28;20047;-75
2023/06/03 03:48:25;;;;;;;2.97;1.75;;;10.50;99.90;;;;;;5070019;28;20058;-74
2023/06/03 03:50:56;;;;;;;4.05;2.10;;;10.50;99.90;;;;;;5054797;28;20482;-75
2023/06/03 03:53:38;;;;;;;3.03;1.60;;;10.50;99.90;;;;;;5087280;28;20092;-75
2023/06/03 03:56:22;;;;;;;2.83;1.60;;;10.60;99.90;;;;;;5086757;28;20055;-74
2023/06/03 03:58:55;;;;;;;3.42;1.60;;;10.60;99.90;;;;;;5087174;28;20406;-74
2023/06/03 04:01:24;;;;;;;3.22;1.60;;;10.50;99.90;;;;;;5070619;28;20066;-75
2023/06/03 04:03:55;;;;;;;2.63;1.38;;;10.60;99.90;;;;;;5084560;28;20044;-74
2023/06/03 04:06:35;;;;;;;4.07;1.70;;;10.60;99.90;;;;;;5070272;28;20087;-75
2023/06/03 04:09:14;;;;;;;4.10;1.40;;;10.60;99.90;;;;;;5087554;28;20547;-75
2023/06/03 04:11:45;;;;;;;3.22;1.50;;;10.60;99.90;;;;;;5070623;28;20043;-74
2023/06/03 04:14:16;;;;;;;3.80;1.58;;;10.60;99.90;;;;;;5087066;28;20478;-74
2023/06/03 04:16:58;;;;;;;3.20;1.92;;;10.60;99.90;;;;;;5088080;28;20054;-74
2023/06/03 04:19:37;;;;;;;3.92;1.83;;;9.50;99.90;;;;;;5070794;28;20063;-73
2023/06/03 04:22:10;;;;;;;4.03;1.92;;;10.60;99.90;;;;;;5085097;28;20463;-75
2023/06/03 04:24:42;;;;;;;3.30;1.58;;;10.50;99.90;;;;;;5085621;28;20043;-73
2023/06/03 04:27:12;;;;;;;4.20;1.60;;;10.60;99.90;;;;;;5085726;28;20076;-73
2023/06/03 04:29:39;;;;;;;2.80;1.50;;;10.60;99.90;;;;;;5085740;28;20051;-75
2023/06/03 04:32:06;;;;;;;2.70;1.80;;;10.60;99.90;;;;;;5086888;28;20044;-74
2023/06/03 04:34:32;;;;;;;2.92;1.67;;;10.60;99.90;;;;;;5073050;28;20063;-74
2023/06/03 04:37:04;;;;;;;3.28;1.70;;;10.60;99.90;;;;;;5091401;28;20062;-73
2023/06/03 04:39:36;;;;;;;2.67;1.40;;;10.60;99.90;;;;;;5061944;28;20109;-73
2023/06/03 04:42:02;;;;;;;5.18;1.63;;;10.60;99.90;;;;;;5090566;28;20051;-74
2023/06/03 04:44:35;;;;;;;3.00;1.42;;;10.60;99.90;;;;;;5073154;28;20522;-74
2023/06/03 04:47:00;;;;;;;2.90;1.70;;;10.70;99.90;;;;;;5050312;28;20410;-74
2023/06/03 04:49:27;;;;;;;3.08;1.63;;;10.70;99.90;;;;;;5056162;28;20052;-74
2023/06/03 04:51:54;;;;;;;7.22;1.63;;;9.90;99.90;;;;;;5057174;28;20086;-76
2023/06/03 04:54:23;;;;;;;2.55;1.67;;;10.70;99.90;;;;;;5073058;28;20056;-75
2023/06/03 04:56:53;;;;;;;4.38;1.52;;;10.70;99.90;;;;;;5090148;28;20091;-74
2023/06/03 04:59:22;;;;;;;3.63;1.48;;;10.80;99.90;;;;;;5090230;28;20135;-75
2023/06/03 05:01:50;;;;;;;3.00;1.35;;;10.80;99.90;;;;;;5056683;28;20122;-75
2023/06/03 05:04:19;;;;;;;3.10;1.58;;;10.90;99.90;;;;;;5088688;28;20055;-74
2023/06/03 05:06:47;;;;;;;3.70;1.50;;;10.90;99.90;;;;;;5089568;28;20040;-74
2023/06/03 05:09:13;;;;;;;3.55;1.33;;;10.90;99.90;;;;;;5072185;28;20044;-77
2023/06/03 05:11:55;;;;;;;3.08;1.60;;;11.00;99.90;;;;;;5089897;28;20154;-75
2023/06/03 05:14:25;;;;;;;2.50;1.42;;;11.10;99.90;;;;;;5091498;28;20055;-75
2023/06/03 05:16:51;;;;;;;3.80;1.42;;;11.10;99.90;;;;;;5072426;28;20105;-75
2023/06/03 05:19:18;;;;;;;6.07;1.60;;;11.20;99.90;;;;;;5072569;28;20743;-73
2023/06/03 05:21:46;;;;;;;2.10;1.30;;;11.30;99.90;;;;;;5090632;28;20060;-73
2023/06/03 05:24:18;;;;;;;4.22;1.40;;;11.40;99.90;;;;;;5066239;28;20063;-73
2023/06/03 05:26:44;;;;;;;4.80;1.50;;;11.40;99.90;;;;;;5088271;28;20041;-73
2023/06/03 05:29:10;;;;;;;3.28;1.40;;;11.50;99.90;;;;;;5105535;28;20651;-74
2023/06/03 05:31:36;;;;;;;5.85;2.00;;;11.60;99.90;;;;;;5072893;28;20051;-74
2023/06/03 05:34:03;;;;;;;2.95;1.40;;;11.70;99.90;;;;;;5072404;28;20068;-73
2023/06/03 05:36:30;;;;;;;4.47;1.40;;;11.80;99.90;;;;;;5071647;28;20043;-74
2023/06/03 05:38:56;;;;;;;2.58;1.40;;;11.90;99.90;;;;;;5089004;28;20123;-73
2023/06/03 05:41:25;;;;;;;3.05;1.67;;;11.00;99.90;;;;;;5064735;28;20085;-74
2023/06/03 05:43:51;;;;;;;3.47;1.35;;;12.20;99.90;;;;;;5071350;28;20044;-74
2023/06/03 05:46:17;;;;;;;3.08;1.50;;;12.30;99.90;;;;;;5071321;28;20464;-73
2023/06/03 05:48:54;;;;;;;3.67;1.60;;;12.40;99.90;;;;;;5089127;28;20066;-74
2023/06/03 05:51:21;;;;;;;3.13;1.58;;;12.50;99.90;;;;;;5072058;28;20044;-73
2023/06/03 05:53:49;;;;;;;3.20;1.42;;;11.80;99.90;;;;;;5064747;28;20597;-73
2023/06/03 05:56:14;;;;;;;2.50;1.23;;;12.80;99.90;;;;;;5089222;28;20059;-73
2023/06/03 05:58:40;;;;;;;4.13;1.42;;;12.90;99.90;;;;;;5054595;28;20044;-74
2023/06/03 06:01:06;;;;;;;3.40;1.25;;;13.00;99.90;;;;;;5089111;28;20060;-74
2023/06/03 06:03:32;;;;;;;2.85;1.20;;;13.10;99.90;;;;;;5072142;28;20055;-73
2023/06/03 06:06:01;;;;;;;3.53;1.30;;;13.20;99.90;;;;;;5072949;28;20097;-74
2023/06/03 06:08:28;;;;;;;3.13;1.30;;;13.40;99.90;;;;;;5069531;28;20122;-73
2023/06/03 06:10:54;;;;;;;2.85;1.45;;;13.50;99.90;;;;;;5070079;28;20170;-73
2023/06/03 06:13:19;;;;;;;3.00;1.52;;;13.60;99.90;;;;;;5038239;28;20130;-76
2023/06/03 06:16:04;;;;;;;3.55;1.45;;;13.80;99.90;;;;;;5088948;28;20067;-75
2023/06/03 06:18:36;;;;;;;5.97;2.10;;;14.00;99.90;;;;;;5088100;28;20048;-74
2023/06/03 06:21:02;;;;;;;2.10;1.20;;;14.10;99.90;;;;;;5071786;28;20078;-74
2023/06/03 06:23:30;;;;;;;2.17;1.40;;;14.30;99.90;;;;;;5071221;28;20047;-74
2023/06/03 06:25:57;;;;;;;4.25;1.67;;;14.50;99.90;;;;;;5070835;28;20496;-74
2023/06/03 06:28:30;;;;;;;4.25;1.58;;;14.30;99.90;;;;;;5054246;28;20047;-74
2023/06/03 06:31:04;;;;;;;3.30;1.20;;;14.90;99.90;;;;;;5088070;28;20047;-73
2023/06/03 06:33:36;;;;;;;2.55;1.20;;;15.00;99.90;;;;;;5088645;28;20113;-75
2023/06/03 06:36:39;;;;;;;4.07;1.40;;;15.10;99.90;;;;;;5071062;28;20048;-74
2023/06/03 06:39:36;;;;;;;2.80;1.25;;;15.10;99.90;;;;;;5088174;28;20067;-74
2023/06/03 06:42:32;;;;;;;2.72;1.30;;;15.10;99.90;;;;;;5030522;28;20056;-74
2023/06/03 06:45:20;;;;;;;4.40;1.40;;;13.90;99.90;;;;;;5037378;28;20067;-76
2023/06/03 06:47:56;;;;;;;3.88;1.52;;;15.00;99.90;;;;;;5036780;28;20251;-75
2023/06/03 06:50:34;;;;;;;4.25;1.70;;;15.00;99.90;;;;;;5037297;28;20431;-75
2023/06/03 06:53:04;;;;;;;4.18;1.52;;;15.00;99.90;;;;;;5037869;28;20126;-75
2023/06/03 06:55:49;;;;;;;3.05;1.40;;;15.10;99.90;;;;;;5020805;28;20135;-75
2023/06/03 06:58:24;;;;;;;2.75;1.30;;;15.30;99.90;;;;;;5054123;28;20055;-75
2023/06/03 07:00:53;;;;;;;4.80;1.15;;;15.50;99.90;;;;;;5053394;28;20201;-76
2023/06/03 07:03:24;;;;;;;3.33;1.48;;;15.80;99.90;;;;;;5013101;28;20110;-74
2023/06/03 07:05:53;;;;;;;3.95;1.48;;;16.00;99.90;;;;;;4979118;28;20045;-75
2023/06/03 07:08:23;;;;;;;2.85;1.40;;;16.30;99.90;;;;;;5036475;28;20053;-75
2023/06/03 07:10:58;;;;;;;3.60;1.35;;;16.50;99.90;;;;;;5036454;28;20049;-75
2023/06/03 07:13:30;;;;;;;3.10;1.50;;;16.70;99.90;;;;;;5027701;28;20053;-75
2023/06/03 07:16:06;;;;;;;3.15;1.42;;;16.90;99.90;;;;;;4998982;28;20049;-75
2023/06/03 07:18:35;;;;;;;3.40;1.58;;;17.20;99.90;;;;;;5041918;28;20443;-77
2023/06/03 07:21:08;;;;;;;3.55;1.40;;;17.40;99.90;;;;;;5071694;28;20055;-75
2023/06/03 07:23:40;;;;;;;5.50;1.70;;;18.00;99.90;;;;;;5087842;28;20578;-75
2023/06/03 07:26:09;;;;;;;2.47;1.10;;;17.90;99.90;;;;;;5088720;28;20056;-75
2023/06/03 07:28:39;;;;;;;3.20;1.30;;;18.00;99.90;;;;;;5086804;28;20044;-75
2023/06/03 07:31:06;;;;;;;4.82;1.40;;;18.20;99.90;;;;;;5070650;28;20052;-75
2023/06/03 07:33:40;;;;;;;3.53;1.20;;;18.40;99.90;;;;;;5087177;28;20051;-75
2023/06/03 07:36:15;;;;;;;2.92;1.20;;;18.70;99.90;;;;;;5087504;28;20055;-75
2023/06/03 07:39:14;;;;;;;4.97;1.30;;;18.90;99.90;;;;;;5063434;28;20067;-75
2023/06/03 07:41:51;;;;;;;3.05;1.92;;;19.50;99.30;;;;;;5103883;28;20062;-75
2023/06/03 07:44:38;;;;;;;2.95;1.23;;;19.20;99.10;;;;;;5063328;28;20059;-75
2023/06/03 07:47:09;;;;;;;4.97;1.38;;;19.50;98.80;;;;;;5087208;28;20055;-75
2023/06/03 07:49:46;;;;;;;2.72;1.20;;;19.80;98.90;;;;;;5061336;28;20795;-75
2023/06/03 07:52:20;;;;;;;2.72;1.00;;;20.20;97.80;;;;;;5104457;28;20040;-74
2023/06/03 07:55:09;;;;;;;2.50;1.20;;;20.20;96.70;;;;;;5088254;28;20087;-75
2023/06/03 07:57:48;;;;;;;2.80;1.20;;;20.30;96.60;;;;;;5086736;28;20050;-74
2023/06/03 08:00:19;;;;;;;2.53;1.08;;;20.50;95.50;;;;;;5068047;28;20144;-75
2023/06/03 08:02:48;;;;;;;1.83;1.00;;;20.70;95.70;;;;;;5087220;28;20596;-75
2023/06/03 08:05:42;;;;;;;3.20;1.30;;;20.90;95.00;;;;;;5086082;28;20083;-76
2023/06/03 08:08:12;;;;;;;2.50;1.00;;;21.20;93.60;;;;;;5047647;28;20053;-75
2023/06/03 08:10:47;;;;;;;2.35;1.20;;;21.20;93.80;;;;;;5059313;28;20079;-74
2023/06/03 08:13:13;;;;;;;2.28;0.98;;;21.50;93.00;;;;;;5048776;28;20107;-74
2023/06/03 08:15:48;;;;;;;1.77;1.00;;;21.70;92.50;;;;;;5048506;28;20128;-74
2023/06/03 08:18:29;;;;;;;4.80;1.00;;;22.00;91.80;;;;;;5048155;28;20053;-74
2023/06/03 08:21:04;;;;;;;2.00;1.00;;;22.30;90.10;;;;;;5063086;28;20098;-74
2023/06/03 08:23:33;;;;;;;2.53;0.73;;;22.40;90.60;;;;;;5047576;28;20455;-74
2023/06/03 08:26:08;;;;;;;2.00;1.20;;;22.70;89.70;;;;;;5031863;28;20538;-74
2023/06/03 08:28:49;;;;;;;1.90;0.90;;;22.80;88.30;;;;;;5064308;28;20419;-74
2023/06/03 08:31:14;;;;;;;2.38;0.93;;;22.80;83.60;;;;;;5005736;28;20303;-74
2023/06/03 08:33:53;;;;;;;1.35;0.73;;;23.00;86.30;;;;;;5058489;28;20729;-75
2023/06/03 08:36:38;;;;;;;2.47;1.08;;;23.10;82.00;;;;;;5063869;28;20043;-74
2023/06/03 08:39:11;;;;;;;2.15;0.93;;;23.20;83.90;;;;;;5099392;28;20059;-75
2023/06/03 08:41:58;;;;;;;3.45;1.00;;;23.40;82.90;;;;;;5071134;28;20090;-75
2023/06/03 08:45:03;;;;;;;4.22;1.15;;;23.50;81.90;;;;;;5087821;28;20093;-76
2023/06/03 08:48:03;;;;;;;3.85;1.23;;;23.70;79.80;;;;;;5084310;28;20044;-75
2023/06/03 08:50:49;;;;;;;1.70;1.00;;;24.00;78.00;;;;;;5100343;28;20055;-75
2023/06/03 08:53:25;;;;;;;2.70;1.00;;;24.10;79.30;;;;;;5087685;28;20095;-75
2023/06/03 08:56:02;;;;;;;3.00;0.93;;;24.40;79.00;;;;;;5103204;28;20051;-75
2023/06/03 08:58:45;;;;;;;1.70;0.98;;;24.60;78.70;;;;;;5070438;28;20406;-74
2023/06/03 09:01:16;;;;;;;2.15;0.88;;;24.80;77.50;;;;;;5085163;28;20040;-75
2023/06/03 09:03:54;;;;;;;2.80;0.90;;;25.10;77.40;;;;;;5087920;28;20620;-75
2023/06/03 09:06:31;;;;;;;2.60;0.80;;;25.00;74.30;;;;;;5066914;28;20048;-76
2023/06/03 09:09:08;;;;;;;3.13;1.00;;;25.30;74.30;;;;;;5083816;28;20499;-74
2023/06/03 09:11:47;;;;;;;3.28;0.98;;;25.30;73.20;;;;;;5071841;28;20564;-76
2023/06/03 09:14:31;;;;;;;1.98;0.88;;;25.50;72.70;;;;;;5085891;28;20040;-75
2023/06/03 09:17:04;;;;;;;3.17;1.00;;;25.60;71.60;;;;;;5069169;28;20056;-75
2023/06/03 09:19:35;;;;;;;2.85;1.05;;;25.50;70.60;;;;;;5088305;28;20202;-75
2023/06/03 09:22:23;;;;;;;2.72;0.98;;;25.80;67.90;;;;;;5074283;28;20051;-75
2023/06/03 09:24:58;;;;;;;1.15;0.80;;;25.80;68.90;;;;;;5090187;28;20048;-75
2023/06/03 09:27:32;;;;;;;3.90;0.90;;;26.00;69.00;;;;;;5073935;28;20059;-75
2023/06/03 09:30:07;;;;;;;3.85;0.80;;;26.30;66.40;;;;;;5073363;28;20150;-74
2023/06/03 09:32:41;;;;;;;3.20;1.00;;;26.50;67.50;;;;;;5090198;28;20104;-75
2023/06/03 09:35:13;;;;;;;2.35;0.68;;;26.80;66.80;;;;;;5056075;28;20139;-74
2023/06/03 09:38:04;;;;;;;3.40;1.00;;;27.00;65.90;;;;;;5074019;28;20059;-74
2023/06/03 09:40:33;;;;;;;4.10;0.93;;;27.20;64.90;;;;;;5105692;28;20150;-74
2023/06/03 09:43:20;;;;;;;2.28;0.90;;;27.40;65.90;;;;;;5070402;28;20059;-74
2023/06/03 09:45:54;;;;;;;1.70;0.80;;;27.50;59.90;;;;;;5075441;28;20063;-75
2023/06/03 09:48:37;;;;;;;2.83;0.90;;;27.80;63.40;;;;;;5072219;28;20056;-74
2023/06/03 09:51:40;;;;;;;2.38;0.90;;;27.90;63.20;;;;;;5087080;28;20094;-75
2023/06/03 09:54:37;;;;;;;2.45;0.90;;;28.00;57.90;;;;;;5052582;28;20098;-75
2023/06/03 09:57:20;;;;;;;2.75;0.73;;;27.90;54.80;;;;;;5068955;28;20564;-74
2023/06/03 10:00:12;;;;;;;2.58;0.85;;;28.00;57.90;;;;;;5073131;28;20063;-74
2023/06/03 10:03:12;;;;;;;4.50;0.90;;;28.10;57.70;;;;;;5086754;28;20082;-75
2023/06/03 10:05:43;;;;;;;2.90;0.88;;;28.00;57.30;;;;;;5071223;28;20047;-76
2023/06/03 10:08:38;;;;;;;1.30;0.70;;;28.10;58.20;;;;;;5053866;28;20891;-73
2023/06/03 10:11:15;;;;;;;2.17;0.85;;;28.10;55.20;;;;;;5070788;28;20118;-75
2023/06/03 10:14:14;;;;;;;2.28;0.85;;;28.30;57.00;;;;;;5084351;28;20290;-75
2023/06/03 10:17:13;;;;;;;2.03;0.98;;;28.30;56.80;;;;;;5009627;28;20057;-75
2023/06/03 10:19:51;;;;;;;5.28;1.10;;;28.50;55.90;;;;;;5001143;28;20053;-74
2023/06/03 10:22:28;;;;;;;7.72;1.17;;;28.60;56.20;;;;;;4996456;28;20157;-74
2023/06/03 10:24:59;;;;;;;2.78;0.90;;;28.10;54.70;;;;;;4966436;28;20100;-74
2023/06/03 10:27:50;;;;;;;2.40;0.88;;;28.50;55.00;;;;;;4981600;28;20058;-75
2023/06/03 10:30:28;;;;;;;2.35;1.00;;;28.70;54.70;;;;;;4982050;28;20491;-74
2023/06/03 10:33:02;;;;;;;3.03;0.82;;;28.90;53.80;;;;;;4982661;28;20071;-75
2023/06/03 10:35:44;;;;;;;2.67;0.88;;;28.90;53.20;;;;;;4999004;28;20370;-75
2023/06/03 10:38:54;;;;;;;2.90;0.82;;;28.80;54.50;;;;;;4975100;28;20111;-76
2023/06/03 10:41:41;;;;;;;1.90;0.90;;;28.80;54.00;;;;;;4997282;28;20160;-74
2023/06/03 10:44:08;;;;;;;2.28;0.80;;;28.80;52.60;;;;;;4996677;28;20066;-74
2023/06/03 10:47:18;;;;;;;2.13;0.90;;;29.10;54.00;;;;;;4996950;28;20049;-76
2023/06/03 10:50:11;;;;;;;2.45;0.90;;;29.20;52.40;;;;;;5066777;28;20057;-75
2023/06/03 10:53:11;;;;;;;2.25;1.00;;;29.20;50.60;;;;;;5036662;28;20051;-74
2023/06/03 10:56:01;;;;;;;5.35;0.90;;;29.10;51.10;;;;;;5087237;28;20075;-75
2023/06/03 10:59:01;;;;;;;3.97;0.90;;;28.90;49.50;;;;;;5088806;28;20571;-74
2023/06/03 11:02:08;;;;;;;2.50;0.85;;;28.80;52.70;;;;;;5084411;28;20129;-74
2023/06/03 11:04:52;;;;;;;3.05;1.10;;;29.10;53.50;;;;;;5072861;28;20051;-74
2023/06/03 11:07:56;;;;;;;4.57;1.40;;;29.40;53.10;;;;;;5087549;28;20060;-75
2023/06/03 11:10:55;;;;;;;3.60;1.13;;;29.80;51.70;;;;;;5066308;28;20133;-74
2023/06/03 11:13:42;;;;;;;4.00;0.80;;;30.00;51.70;;;;;;5006835;28;20119;-76
2023/06/03 11:16:20;;;;;;;2.95;1.00;;;30.30;52.20;;;;;;4990075;28;20057;-75
2023/06/03 11:19:15;;;;;;;3.67;1.23;;;30.50;51.80;;;;;;4973650;28;20062;-74
2023/06/03 11:21:57;;;;;;;3.22;1.08;;;30.50;50.70;;;;;;5005296;28;20053;-75
2023/06/03 11:25:25;;;;;;;1.88;0.65;;;30.60;50.80;;;;;;4995521;28;20049;-75
2023/06/03 11:28:47;;;;;;;2.03;0.90;;;31.00;48.60;;;;;;4992197;28;20104;-74
2023/06/03 11:31:20;;;;;;;2.63;1.00;;;31.10;49.40;;;;;;5007179;28;20054;-74
2023/06/03 11:34:32;;;;;;;2.40;0.60;;;31.20;49.70;;;;;;4975980;28;20152;-73
2023/06/03 11:37:17;;;;;;;1.48;0.80;;;30.80;45.80;;;;;;5006315;28;20053;-75
2023/06/03 11:40:07;;;;;;;2.67;0.93;;;30.70;48.90;;;;;;4971898;28;20642;-75
2023/06/03 11:42:50;;;;;;;2.28;1.00;;;30.80;47.70;;;;;;5004775;28;20054;-74
2023/06/03 11:48:19;;;;;;;3.97;1.98;;;30.90;49.30;;;;;;5065579;28;20105;-77
2023/06/03 11:51:04;;;;;;;5.72;1.00;;;30.90;49.40;;;;;;5033518;28;20440;-75
2023/06/03 11:53:43;;;;;;;2.83;1.23;;;31.00;48.70;;;;;;5047783;28;20056;-75
2023/06/03 11:56:21;;;;;;;2.70;1.10;;;31.00;49.30;;;;;;5025475;28;20101;-75
2023/06/03 11:58:54;;;;;;;4.00;1.10;;;31.10;49.00;;;;;;5048274;28;20053;-75
2023/06/03 12:02:21;;;;;;;2.30;0.80;;;31.40;48.40;;;;;;5049475;28;20091;-75
2023/06/03 12:05:17;;;;;;;3.63;1.00;;;31.50;47.10;;;;;;5051114;28;20107;-75
2023/06/03 12:08:03;;;;;;;2.50;0.98;;;31.40;48.80;;;;;;4989351;28;20084;-75
2023/06/03 12:11:08;;;;;;;4.78;1.05;;;31.40;48.10;;;;;;4998670;28;20550;-75
2023/06/03 12:13:49;;;;;;;3.83;1.20;;;31.60;48.60;;;;;;5026479;28;20079;-74
2023/06/03 12:16:26;;;;;;;;;;;32.10;49.10;;;;;;5044418;28;20152;-75
2023/06/03 12:19:35;;;;;;;5.10;1.42;;;31.90;48.00;;;;;;5031458;28;19925;-75
2023/06/03 12:22:15;;;;;;;2.70;0.90;;;31.90;48.90;;;;;;5044522;28;20118;-75
2023/06/03 12:25:01;;;;;;;2.67;1.00;;;31.80;48.00;;;;;;5038351;28;20149;-75
2023/06/03 12:27:32;;;;;;;2.83;0.85;;;31.70;48.20;;;;;;5027376;28;20534;-75
2023/06/03 12:30:11;;;;;;;2.13;0.90;;;31.70;48.90;;;;;;5046368;28;20052;-75
2023/06/03 12:32:59;;;;;;;5.05;0.77;;;31.70;48.50;;;;;;5045032;28;20132;-76
2023/06/03 12:36:08;;;;;;;3.15;1.02;;;31.70;47.30;;;;;;5045827;28;20094;-75
2023/06/03 12:39:13;;;;;;;4.20;1.02;;;31.60;48.00;;;;;;5054042;28;20048;-76
2023/06/03 12:42:04;;;;;;;2.97;0.90;;;31.50;48.30;;;;;;5088328;28;20056;-75
2023/06/03 12:45:05;;;;;;;1.60;0.77;;;31.40;49.10;;;;;;5084127;28;20174;-74
2023/06/03 12:48:02;;;;;;;1.75;0.80;;;31.20;49.10;;;;;;5079910;28;20513;-75
2023/06/03 12:50:51;;;;;;;3.42;1.02;;;31.00;49.80;;;;;;5087484;28;20086;-75
2023/06/03 12:53:21;;;;;;;3.00;0.80;;;30.90;49.60;;;;;;5074219;28;20065;-75
2023/06/03 12:56:12;;;;;;;;;;;30.80;50.50;;;;;;5069428;28;20059;-74
2023/06/03 12:59:15;;;;;;;4.10;0.80;;;30.90;49.30;;;;;;5089133;28;20041;-75
2023/06/03 13:02:03;;;;;;;2.70;0.80;;;31.10;48.70;;;;;;5036250;28;20428;-75
2023/06/03 13:04:46;;;;;;;3.75;0.80;;;31.10;49.20;;;;;;5085255;28;20090;-74
2023/06/03 13:07:23;;;;;;;2.67;0.90;;;30.80;49.40;;;;;;5066245;28;20052;-76
2023/06/03 13:10:35;;;;;;;1.92;0.70;;;30.90;50.00;;;;;;5089291;28;20047;-75
2023/06/03 13:13:33;;;;;;;2.30;0.60;;;31.10;50.20;;;;;;5017434;28;20580;-74
2023/06/03 13:16:47;;;;;;;2.70;0.82;;;31.20;49.80;;;;;;5009522;28;20279;-75
2023/06/03 13:19:47;;;;;;;1.58;0.80;;;31.30;50.10;;;;;;4985395;28;20057;-75
2023/06/03 13:22:29;;;;;;;4.43;0.90;;;31.30;49.90;;;;;;4962216;28;20092;-75
2023/06/03 13:25:11;;;;;;;1.52;0.80;;;31.30;49.50;;;;;;4978074;28;20050;-75
2023/06/03 13:28:27;;;;;;;1.92;0.70;;;31.20;49.10;;;;;;5018429;28;20109;-75
2023/06/03 13:30:59;;;;;;;4.05;1.00;;;31.20;49.30;;;;;;5045515;28;20072;-76
2023/06/03 13:34:16;;;;;;;2.92;1.00;;;31.20;49.80;;;;;;5015331;28;20061;-75
2023/06/03 13:37:08;;;;;;;4.15;0.90;;;31.10;49.00;;;;;;5039404;28;20051;-75
2023/06/03 13:46:37;;;;;;;2.13;0.80;;;30.70;49.90;;;;;;5038633;28;20115;-74
2023/06/03 13:49:32;;;;;;;1.20;0.73;;;30.60;49.00;;;;;;5038982;28;20122;-75
2023/06/03 13:51:57;;;;;;;2.90;0.65;;;30.20;48.10;;;;;;5038324;28;20053;-75